Time,TemperatureF,DewpointF,PressureIn,WindDirection,WindDirectionDegrees,WindSpeedMPH,WindSpeedGustMPH,Humidity,HourlyPrecipIn,Conditions,Clouds,dailyrainin,SoftwareType,DateUTC
2013-02-03 00:00:00,52.0,48.0,-100.00,ENE,72,3.0,-999.0,86,0.00,,,-99.99,,2013-02-03 08:00:00,
2013-02-03 00:22:00,52.0,48.0,-100.00,ENE,72,3.0,-999.0,86,0.00,,,-99.99,,2013-02-03 08:22:00,
2013-02-03 00:32:00,52.0,48.0,-100.00,ENE,72,3.0,-999.0,86,0.00,,,-99.99,,2013-02-03 08:32:00,
2013-02-03 00:42:00,52.0,48.0,-100.00,ENE,72,3.0,-999.0,86,0.00,,,-99.99,,2013-02-03 08:42:00,
2013-02-03 00:52:00,52.0,48.0,-100.00,ENE,72,3.0,-999.0,86,0.00,,,-99.99,,2013-02-03 08:52:00,
2013-02-03 01:00:00,51.0,47.0,-100.00,North,5,2.0,-999.0,86,0.00,,,-99.99,,2013-02-03 09:00:00,
2013-02-03 01:22:00,51.0,47.0,-100.00,North,5,2.0,-999.0,86,0.00,,,-99.99,,2013-02-03 09:22:00,
2013-02-03 01:32:00,51.0,47.0,-100.00,North,5,2.0,-999.0,86,0.00,,,-99.99,,2013-02-03 09:32:00,
2013-02-03 01:42:00,51.0,47.0,-100.00,North,5,2.0,-999.0,86,0.00,,,-99.99,,2013-02-03 09:42:00,
2013-02-03 01:52:00,51.0,47.0,-100.00,North,5,2.0,-999.0,86,0.00,,,-99.99,,2013-02-03 09:52:00,
2013-02-03 02:00:00,50.0,46.0,-100.00,SSE,159,2.0,-999.0,88,0.00,,,-99.99,,2013-02-03 10:00:00,
2013-02-03 02:21:00,50.0,46.0,-100.00,SSE,159,2.0,-999.0,88,0.00,,,-99.99,,2013-02-03 10:21:00,
2013-02-03 02:32:00,50.0,46.0,-100.00,SSE,159,2.0,-999.0,88,0.00,,,-99.99,,2013-02-03 10:32:00,
2013-02-03 02:42:00,50.0,46.0,-100.00,SSE,159,2.0,-999.0,88,0.00,,,-99.99,,2013-02-03 10:42:00,
2013-02-03 02:52:00,50.0,46.0,-100.00,SSE,159,2.0,-999.0,88,0.00,,,-99.99,,2013-02-03 10:52:00,
2013-02-03 03:00:00,48.0,45.0,-100.00,WNW,295,2.0,-999.0,88,0.00,,,-99.99,,2013-02-03 11:00:00,
2013-02-03 03:22:00,48.0,45.0,-100.00,WNW,295,2.0,-999.0,88,0.00,,,-99.99,,2013-02-03 11:22:00,
2013-02-03 03:32:00,48.0,45.0,-100.00,WNW,295,2.0,-999.0,88,0.00,,,-99.99,,2013-02-03 11:32:00,
2013-02-03 03:42:00,48.0,45.0,-100.00,WNW,295,2.0,-999.0,88,0.00,,,-99.99,,2013-02-03 11:42:00,
2013-02-03 03:52:00,48.0,45.0,-100.00,WNW,295,2.0,-999.0,88,0.00,,,-99.99,,2013-02-03 11:52:00,
2013-02-03 04:00:00,49.0,46.0,-100.00,ENE,78,3.0,-999.0,89,0.00,,,-99.99,,2013-02-03 12:00:00,
2013-02-03 04:22:00,49.0,46.0,-100.00,ENE,78,3.0,-999.0,89,0.00,,,-99.99,,2013-02-03 12:22:00,
2013-02-03 04:32:00,49.0,46.0,-100.00,ENE,78,3.0,-999.0,89,0.00,,,-99.99,,2013-02-03 12:32:00,
2013-02-03 04:42:00,49.0,46.0,-100.00,ENE,78,3.0,-999.0,89,0.00,,,-99.99,,2013-02-03 12:42:00,
2013-02-03 04:53:00,49.0,46.0,-100.00,ENE,78,3.0,-999.0,89,0.00,,,-99.99,,2013-02-03 12:53:00,
2013-02-03 05:00:00,46.0,44.0,-100.00,SSW,199,2.0,-999.0,90,0.00,,,-99.99,,2013-02-03 13:00:00,
2013-02-03 05:22:00,46.0,44.0,-100.00,SSW,199,2.0,-999.0,90,0.00,,,-99.99,,2013-02-03 13:22:00,
2013-02-03 05:32:00,46.0,44.0,-100.00,SSW,199,2.0,-999.0,90,0.00,,,-99.99,,2013-02-03 13:32:00,
2013-02-03 05:42:00,46.0,44.0,-100.00,SSW,199,2.0,-999.0,90,0.00,,,-99.99,,2013-02-03 13:42:00,
2013-02-03 05:52:00,46.0,44.0,-100.00,SSW,199,2.0,-999.0,90,0.00,,,-99.99,,2013-02-03 13:52:00,
2013-02-03 06:00:00,44.0,42.0,-100.00,South,190,2.0,-999.0,91,0.00,,,-99.99,,2013-02-03 14:00:00,
2013-02-03 06:22:00,44.0,42.0,-100.00,South,190,2.0,-999.0,91,0.00,,,-99.99,,2013-02-03 14:22:00,
2013-02-03 06:32:00,44.0,42.0,-100.00,South,190,2.0,-999.0,91,0.00,,,-99.99,,2013-02-03 14:32:00,
2013-02-03 06:42:00,44.0,42.0,-100.00,South,190,2.0,-999.0,91,0.00,,,-99.99,,2013-02-03 14:42:00,
2013-02-03 06:52:00,44.0,42.0,-100.00,South,190,2.0,-999.0,91,0.00,,,-99.99,,2013-02-03 14:52:00,
2013-02-03 07:00:00,42.0,40.0,-100.00,SSE,163,2.0,-999.0,92,0.00,,,-99.99,,2013-02-03 15:00:00,
2013-02-03 07:23:00,42.0,40.0,-100.00,SSE,163,2.0,-999.0,92,0.00,,,-99.99,,2013-02-03 15:23:00,
2013-02-03 07:33:00,42.0,40.0,-100.00,SSE,163,2.0,-999.0,92,0.00,,,-99.99,,2013-02-03 15:33:00,
2013-02-03 07:42:00,42.0,40.0,-100.00,SSE,163,2.0,-999.0,92,0.00,,,-99.99,,2013-02-03 15:42:00,
2013-02-03 07:52:00,42.0,40.0,-100.00,SSE,163,2.0,-999.0,92,0.00,,,-99.99,,2013-02-03 15:52:00,
2013-02-03 08:00:00,44.0,43.0,-100.00,SSW,206,3.0,-999.0,93,0.00,,,-99.99,,2013-02-03 16:00:00,
2013-02-03 08:22:00,44.0,43.0,-100.00,SSW,206,3.0,-999.0,93,0.00,,,-99.99,,2013-02-03 16:22:00,
2013-02-03 08:33:00,44.0,43.0,-100.00,SSW,206,3.0,-999.0,93,0.00,,,-99.99,,2013-02-03 16:33:00,
2013-02-03 08:42:00,44.0,43.0,-100.00,SSW,206,3.0,-999.0,93,0.00,,,-99.99,,2013-02-03 16:42:00,
2013-02-03 08:52:00,44.0,43.0,-100.00,SSW,206,3.0,-999.0,93,0.00,,,-99.99,,2013-02-03 16:52:00,
2013-02-03 09:00:00,45.0,44.0,-100.00,SE,132,4.0,-999.0,93,0.00,,,-99.99,,2013-02-03 17:00:00,
2013-02-03 09:22:00,45.0,44.0,-100.00,SE,132,4.0,-999.0,93,0.00,,,-99.99,,2013-02-03 17:22:00,
2013-02-03 09:32:00,45.0,44.0,-100.00,SE,132,4.0,-999.0,93,0.00,,,-99.99,,2013-02-03 17:32:00,
2013-02-03 09:42:00,45.0,44.0,-100.00,SE,132,4.0,-999.0,93,0.00,,,-99.99,,2013-02-03 17:42:00,
2013-02-03 09:52:00,45.0,44.0,-100.00,SE,132,4.0,-999.0,93,0.00,,,-99.99,,2013-02-03 17:52:00,
2013-02-03 10:00:00,48.0,46.0,-100.00,South,188,2.0,-999.0,93,0.00,,,-99.99,,2013-02-03 18:00:00,
2013-02-03 10:23:00,48.0,46.0,-100.00,South,188,2.0,-999.0,93,0.00,,,-99.99,,2013-02-03 18:23:00,
2013-02-03 10:33:00,48.0,46.0,-100.00,South,188,2.0,-999.0,93,0.00,,,-99.99,,2013-02-03 18:33:00,
2013-02-03 10:42:00,48.0,46.0,-100.00,South,188,2.0,-999.0,93,0.00,,,-99.99,,2013-02-03 18:42:00,
2013-02-03 10:52:00,48.0,46.0,-100.00,South,188,2.0,-999.0,93,0.00,,,-99.99,,2013-02-03 18:52:00,
2013-02-03 11:00:00,52.0,50.0,-100.00,West,280,4.0,-999.0,92,0.00,,,-99.99,,2013-02-03 19:00:00,
2013-02-03 11:22:00,52.0,50.0,-100.00,West,280,4.0,-999.0,92,0.00,,,-99.99,,2013-02-03 19:22:00,
2013-02-03 11:32:00,52.0,50.0,-100.00,West,280,4.0,-999.0,92,0.00,,,-99.99,,2013-02-03 19:32:00,
2013-02-03 11:42:00,52.0,50.0,-100.00,West,280,4.0,-999.0,92,0.00,,,-99.99,,2013-02-03 19:42:00,
2013-02-03 11:52:00,52.0,50.0,-100.00,West,280,4.0,-999.0,92,0.00,,,-99.99,,2013-02-03 19:52:00,
2013-02-03 12:00:00,54.0,50.0,-100.00,West,264,6.0,-999.0,86,0.00,,,-99.99,,2013-02-03 20:00:00,
2013-02-03 12:22:00,54.0,50.0,-100.00,West,264,6.0,-999.0,86,0.00,,,-99.99,,2013-02-03 20:22:00,
2013-02-03 12:33:00,54.0,50.0,-100.00,West,264,6.0,-999.0,86,0.00,,,-99.99,,2013-02-03 20:33:00,
2013-02-03 12:42:00,54.0,50.0,-100.00,West,264,6.0,-999.0,86,0.00,,,-99.99,,2013-02-03 20:42:00,
2013-02-03 12:52:00,54.0,50.0,-100.00,West,264,6.0,-999.0,86,0.00,,,-99.99,,2013-02-03 20:52:00,
2013-02-03 13:00:00,56.0,50.0,-100.00,SW,233,2.0,-999.0,78,0.00,,,-99.99,,2013-02-03 21:00:00,
2013-02-03 13:22:00,56.0,50.0,-100.00,SW,233,2.0,-999.0,78,0.00,,,-99.99,,2013-02-03 21:22:00,
2013-02-03 13:33:00,56.0,50.0,-100.00,SW,233,2.0,-999.0,78,0.00,,,-99.99,,2013-02-03 21:33:00,
2013-02-03 13:42:00,56.0,50.0,-100.00,SW,233,2.0,-999.0,78,0.00,,,-99.99,,2013-02-03 21:42:00,
2013-02-03 13:52:00,56.0,50.0,-100.00,SW,233,2.0,-999.0,78,0.00,,,-99.99,,2013-02-03 21:52:00,
2013-02-03 14:00:00,59.0,49.0,-100.00,NW,318,3.0,-999.0,68,0.00,,,-99.99,,2013-02-03 22:00:00,
2013-02-03 14:22:00,59.0,49.0,-100.00,NW,318,3.0,-999.0,68,0.00,,,-99.99,,2013-02-03 22:22:00,
2013-02-03 14:32:00,59.0,49.0,-100.00,NW,318,3.0,-999.0,68,0.00,,,-99.99,,2013-02-03 22:32:00,
2013-02-03 14:42:00,59.0,49.0,-100.00,NW,318,3.0,-999.0,68,0.00,,,-99.99,,2013-02-03 22:42:00,
2013-02-03 14:52:00,59.0,49.0,-100.00,NW,318,3.0,-999.0,68,0.00,,,-99.99,,2013-02-03 22:52:00,
2013-02-03 15:00:00,62.0,48.0,-100.00,SSW,194,3.0,-999.0,60,0.00,,,-99.99,,2013-02-03 23:00:00,
2013-02-03 15:22:00,62.0,48.0,-100.00,SSW,194,3.0,-999.0,60,0.00,,,-99.99,,2013-02-03 23:22:00,
2013-02-03 15:32:00,62.0,48.0,-100.00,SSW,194,3.0,-999.0,60,0.00,,,-99.99,,2013-02-03 23:32:00,
2013-02-03 15:42:00,62.0,48.0,-100.00,SSW,194,3.0,-999.0,60,0.00,,,-99.99,,2013-02-03 23:42:00,
2013-02-03 15:52:00,62.0,48.0,-100.00,SSW,194,3.0,-999.0,60,0.00,,,-99.99,,2013-02-03 23:52:00,
2013-02-03 16:00:00,63.0,47.0,-100.00,WSW,257,2.0,-999.0,55,0.00,,,-99.99,,2013-02-04 00:00:00,
2013-02-03 16:22:00,63.0,47.0,-100.00,WSW,257,2.0,-999.0,55,0.00,,,-99.99,,2013-02-04 00:22:00,
2013-02-03 16:32:00,63.0,47.0,-100.00,WSW,257,2.0,-999.0,55,0.00,,,-99.99,,2013-02-04 00:32:00,
2013-02-03 16:42:00,63.0,47.0,-100.00,WSW,257,2.0,-999.0,55,0.00,,,-99.99,,2013-02-04 00:42:00,
2013-02-03 16:52:00,63.0,47.0,-100.00,WSW,257,2.0,-999.0,55,0.00,,,-99.99,,2013-02-04 00:52:00,
2013-02-03 17:00:00,62.0,47.0,-100.00,West,279,4.0,-999.0,58,0.00,,,-99.99,,2013-02-04 01:00:00,
2013-02-03 17:22:00,62.0,47.0,-100.00,West,279,4.0,-999.0,58,0.00,,,-99.99,,2013-02-04 01:22:00,
2013-02-03 17:32:00,62.0,47.0,-100.00,West,279,4.0,-999.0,58,0.00,,,-99.99,,2013-02-04 01:32:00,
2013-02-03 17:42:00,62.0,47.0,-100.00,West,279,4.0,-999.0,58,0.00,,,-99.99,,2013-02-04 01:42:00,
2013-02-03 17:52:00,62.0,47.0,-100.00,West,279,4.0,-999.0,58,0.00,,,-99.99,,2013-02-04 01:52:00,
2013-02-03 18:00:00,56.0,48.0,-100.00,NW,321,4.0,-999.0,72,0.00,,,-99.99,,2013-02-04 02:00:00,
2013-02-03 18:22:00,56.0,48.0,-100.00,NW,321,4.0,-999.0,72,0.00,,,-99.99,,2013-02-04 02:22:00,
2013-02-03 18:32:00,56.0,48.0,-100.00,NW,321,4.0,-999.0,72,0.00,,,-99.99,,2013-02-04 02:32:00,
2013-02-03 18:42:00,56.0,48.0,-100.00,NW,321,4.0,-999.0,72,0.00,,,-99.99,,2013-02-04 02:42:00,
2013-02-03 18:52:00,56.0,48.0,-100.00,NW,321,4.0,-999.0,72,0.00,,,-99.99,,2013-02-04 02:52:00,
2013-02-03 19:00:00,54.0,47.0,-100.00,NNE,15,3.0,-999.0,76,0.00,,,-99.99,,2013-02-04 03:00:00,
2013-02-03 19:21:00,54.0,47.0,-100.00,NNE,15,3.0,-999.0,76,0.00,,,-99.99,,2013-02-04 03:21:00,
2013-02-03 19:32:00,54.0,47.0,-100.00,NNE,15,3.0,-999.0,76,0.00,,,-99.99,,2013-02-04 03:32:00,
2013-02-03 19:42:00,54.0,47.0,-100.00,NNE,15,3.0,-999.0,76,0.00,,,-99.99,,2013-02-04 03:42:00,
2013-02-03 19:52:00,54.0,47.0,-100.00,NNE,15,3.0,-999.0,76,0.00,,,-99.99,,2013-02-04 03:52:00,
2013-02-03 20:00:00,52.0,47.0,-100.00,SW,236,3.0,-999.0,82,0.00,,,-99.99,,2013-02-04 04:00:00,
2013-02-03 20:22:00,52.0,47.0,-100.00,SW,236,3.0,-999.0,82,0.00,,,-99.99,,2013-02-04 04:22:00,
2013-02-03 20:32:00,52.0,47.0,-100.00,SW,236,3.0,-999.0,82,0.00,,,-99.99,,2013-02-04 04:32:00,
2013-02-03 20:42:00,52.0,47.0,-100.00,SW,236,3.0,-999.0,82,0.00,,,-99.99,,2013-02-04 04:42:00,
2013-02-03 20:52:00,52.0,47.0,-100.00,SW,236,3.0,-999.0,82,0.00,,,-99.99,,2013-02-04 04:52:00,
2013-02-03 21:00:00,49.0,46.0,-100.00,NE,54,4.0,-999.0,87,0.00,,,-99.99,,2013-02-04 05:00:00,
2013-02-03 21:22:00,49.0,46.0,-100.00,NE,54,4.0,-999.0,87,0.00,,,-99.99,,2013-02-04 05:22:00,
2013-02-03 21:33:00,49.0,46.0,-100.00,NE,54,4.0,-999.0,87,0.00,,,-99.99,,2013-02-04 05:33:00,
2013-02-03 21:42:00,49.0,46.0,-100.00,NE,54,4.0,-999.0,87,0.00,,,-99.99,,2013-02-04 05:42:00,
2013-02-03 21:52:00,49.0,46.0,-100.00,NE,54,4.0,-999.0,87,0.00,,,-99.99,,2013-02-04 05:52:00,
2013-02-03 22:00:00,47.0,43.0,-100.00,ESE,103,4.0,-999.0,86,0.00,,,-99.99,,2013-02-04 06:00:00,
2013-02-03 22:21:00,47.0,43.0,-100.00,ESE,103,4.0,-999.0,86,0.00,,,-99.99,,2013-02-04 06:21:00,
2013-02-03 22:32:00,47.0,43.0,-100.00,ESE,103,4.0,-999.0,86,0.00,,,-99.99,,2013-02-04 06:32:00,
2013-02-03 22:42:00,47.0,43.0,-100.00,ESE,103,4.0,-999.0,86,0.00,,,-99.99,,2013-02-04 06:42:00,
2013-02-03 22:52:00,47.0,43.0,-100.00,ESE,103,4.0,-999.0,86,0.00,,,-99.99,,2013-02-04 06:52:00,
2013-02-03 23:00:00,45.0,42.0,-100.00,SW,216,4.0,-999.0,89,0.00,,,-99.99,,2013-02-04 07:00:00,
2013-02-03 23:21:00,45.0,42.0,-100.00,SW,216,4.0,-999.0,89,0.00,,,-99.99,,2013-02-04 07:21:00,
2013-02-03 23:32:00,45.0,42.0,-100.00,SW,216,4.0,-999.0,89,0.00,,,-99.99,,2013-02-04 07:32:00,
2013-02-03 23:42:00,45.0,42.0,-100.00,SW,216,4.0,-999.0,89,0.00,,,-99.99,,2013-02-04 07:42:00,
2013-02-03 23:52:00,45.0,42.0,-100.00,SW,216,4.0,-999.0,89,0.00,,,-99.99,,2013-02-04 07:52:00,